Lawton, MI (49065)

4:37 AM EDT on October 01, 2014 (GMT -0400)
10ACREWOOD | Change Station
CLOSE
Current Station
Personal Weather Station
Location: prairie ronde township, MI
Elevation: 915 ft
Nearby Weather Stations

Elev 915 ft 42.12 °N, 85.72 °W | Updated 6 seconds ago

Overcast
Overcast
52.3 °F
Feels Like 52.3 °F
N
0.7
Wind Variable Wind from SE
Gusts 4.5 mph

Today
High -- | Low -- °F
--% Chance of Precip.
Yesterday
High -- | Low -- °F
Precip. -- in
7:40 AM 7:24 PM
Waxing Crescent, 45% visible
Pressure 29.98 in
Visibility 10.0 miles
Clouds Overcast 800 ft
Dew Point 51 °F
Humidity 95%
Rainfall 0.00 in
Snow Depth Not available.
UV 0 out of 12
Pollen 3.20 out of 12
Ozone Good
PM2.5 Good
Flu Activity Not available.
METAR KAZO 300753Z AUTO 35009KT 10SM OVC008 10/08 A2998 RMK AO2 RAE01 CIG 004V012 SLP152 P0000 T01000083 TSNO

More Conditions Fewer Conditions

Pressure 29.98 in
Visibility 10.0 miles
Clouds Overcast 800 ft
Dew Point 51 °F
Humidity 95%
Rainfall 0.00 in
Snow Depth Not available.
UV 0 out of 12
Pollen 3.20 out of 12
Ozone Good
PM2.5 Good
Flu Activity Not available.
METAR KAZO 300753Z AUTO 35009KT 10SM OVC008 10/08 A2998 RMK AO2 RAE01 CIG 004V012 SLP152 P0000 T01000083 TSNO

More Conditions Fewer Conditions

10-Day Weather Forecast

Almanac

Astronomy

Oct. 01, 2014 Rise Set
Actual Time 7:40 AM EDT 7:24 PM EDT
Civil Twilight 7:12 AM EDT 7:52 PM EDT
Nautical Twilight 6:39 AM EDT 8:25 PM EDT
Astronomical Twilight 6:07 AM EDT 8:57 PM EDT
Moon 2:45 PM EDT No Moon Set
Length of Visible Light 12h 40m
Length of Day
11h 44m
Tomorrow will be 2m 48s shorter.
Waxing Crescent, 45% of the Moon is Illuminated
Today
Waxing Crescent
Oct 1
First Quarter
Oct 8
Full
Oct 15
Last Quarter
Oct 23
New

Today's Extremes

State Highs State Lows

Community

WunderPhotos

Upload Photos

1,757,902 photos uploaded!

Nearby

Air Quality

  Air Quality AQ Index Pollutant
Yesterday Good
OZONE
Yesterday Good
PM2.5
Current Good
OZONE
Current Good
PM2.5
Wednesday Good
OZONE
Wednesday Good
PM2.5
Thursday Good
OZONE
Thursday Good
PM2.5
Friday Good
OZONE
Friday Good
PM2.5
Saturday Good
OZONE
Saturday Good
PM2.5

Snow Depth

Station Depth Elevation
No new snow has been reported.

Earthquake Activity

City Distance Mag. Time & Date
No recent earthquake activity has been reported nearby.
Minimum magnitude displayed is 2.5.

Coastal Water Temperatures

Place Temperature
Holland, MI 60.1 °F

Nearby Weather Stations